sensor_id;sensor_type;location;lat;lon;timestamp;P1;durP1;ratioP1;P2;durP2;ratioP2
39656;SDS011;25337;51.478;7.510;2022-09-12T00:01:57;32.63;;;14.90;;
39656;SDS011;25337;51.478;7.510;2022-09-12T00:04:23;31.20;;;12.82;;
39656;SDS011;25337;51.478;7.510;2022-09-12T00:06:48;31.73;;;13.57;;
39656;SDS011;25337;51.478;7.510;2022-09-12T00:09:14;32.88;;;14.05;;
39656;SDS011;25337;51.478;7.510;2022-09-12T00:11:42;35.28;;;13.95;;
39656;SDS011;25337;51.478;7.510;2022-09-12T00:14:10;32.97;;;14.30;;
39656;SDS011;25337;51.478;7.510;2022-09-12T00:16:38;35.35;;;14.68;;
39656;SDS011;25337;51.478;7.510;2022-09-12T00:19:05;36.60;;;15.05;;
39656;SDS011;25337;51.478;7.510;2022-09-12T00:21:32;31.42;;;14.50;;
39656;SDS011;25337;51.478;7.510;2022-09-12T00:23:59;34.13;;;14.40;;
39656;SDS011;25337;51.478;7.510;2022-09-12T00:26:25;37.17;;;14.98;;
39656;SDS011;25337;51.478;7.510;2022-09-12T00:28:50;32.30;;;14.63;;
39656;SDS011;25337;51.478;7.510;2022-09-12T00:31:18;39.03;;;14.55;;
39656;SDS011;25337;51.478;7.510;2022-09-12T00:33:45;39.28;;;15.70;;
39656;SDS011;25337;51.478;7.510;2022-09-12T00:36:12;33.55;;;15.13;;
39656;SDS011;25337;51.478;7.510;2022-09-12T00:38:40;36.08;;;16.02;;
39656;SDS011;25337;51.478;7.510;2022-09-12T00:41:09;37.60;;;15.15;;
39656;SDS011;25337;51.478;7.510;2022-09-12T00:43:48;33.67;;;14.73;;
39656;SDS011;25337;51.478;7.510;2022-09-12T00:46:27;38.97;;;15.75;;
39656;SDS011;25337;51.478;7.510;2022-09-12T00:48:55;38.38;;;15.77;;
39656;SDS011;25337;51.478;7.510;2022-09-12T00:51:30;39.42;;;14.15;;
39656;SDS011;25337;51.478;7.510;2022-09-12T00:53:57;33.30;;;14.18;;
39656;SDS011;25337;51.478;7.510;2022-09-12T00:56:26;37.97;;;14.88;;
39656;SDS011;25337;51.478;7.510;2022-09-12T00:59:00;38.95;;;15.57;;
39656;SDS011;25337;51.478;7.510;2022-09-12T01:01:34;34.35;;;14.73;;
39656;SDS011;25337;51.478;7.510;2022-09-12T01:04:01;34.63;;;15.27;;
39656;SDS011;25337;51.478;7.510;2022-09-12T01:06:27;43.25;;;16.20;;
39656;SDS011;25337;51.478;7.510;2022-09-12T01:08:59;37.58;;;14.90;;
39656;SDS011;25337;51.478;7.510;2022-09-12T01:11:28;38.90;;;14.55;;
39656;SDS011;25337;51.478;7.510;2022-09-12T01:14:00;37.50;;;15.07;;
39656;SDS011;25337;51.478;7.510;2022-09-12T01:16:25;34.13;;;14.63;;
39656;SDS011;25337;51.478;7.510;2022-09-12T01:24:32;36.13;;;14.57;;
39656;SDS011;25337;51.478;7.510;2022-09-12T01:35:23;36.42;;;14.80;;
39656;SDS011;25337;51.478;7.510;2022-09-12T01:46:16;35.40;;;14.35;;
39656;SDS011;25337;51.478;7.510;2022-09-12T01:51:43;42.10;;;15.02;;
39656;SDS011;25337;51.478;7.510;2022-09-12T01:54:24;35.13;;;15.10;;
39656;SDS011;25337;51.478;7.510;2022-09-12T01:56:56;34.17;;;14.63;;
39656;SDS011;25337;51.478;7.510;2022-09-12T01:59:34;33.67;;;14.13;;
39656;SDS011;25337;51.478;7.510;2022-09-12T02:02:15;38.83;;;14.88;;
39656;SDS011;25337;51.478;7.510;2022-09-12T02:07:40;37.83;;;14.80;;
39656;SDS011;25337;51.478;7.510;2022-09-12T02:13:00;33.20;;;13.85;;
39656;SDS011;25337;51.478;7.510;2022-09-12T02:15:35;37.50;;;15.23;;
39656;SDS011;25337;51.478;7.510;2022-09-12T02:18:05;36.55;;;15.20;;
39656;SDS011;25337;51.478;7.510;2022-09-12T02:20:36;39.92;;;14.68;;
39656;SDS011;25337;51.478;7.510;2022-09-12T02:23:05;40.28;;;14.70;;
39656;SDS011;25337;51.478;7.510;2022-09-12T02:25:37;34.08;;;13.50;;
39656;SDS011;25337;51.478;7.510;2022-09-12T02:28:11;38.20;;;15.48;;
39656;SDS011;25337;51.478;7.510;2022-09-12T02:30:49;36.42;;;14.45;;
39656;SDS011;25337;51.478;7.510;2022-09-12T02:33:45;34.33;;;13.55;;
39656;SDS011;25337;51.478;7.510;2022-09-12T02:36:30;41.00;;;14.32;;
39656;SDS011;25337;51.478;7.510;2022-09-12T02:39:04;34.50;;;14.48;;
39656;SDS011;25337;51.478;7.510;2022-09-12T02:41:30;36.05;;;14.25;;
39656;SDS011;25337;51.478;7.510;2022-09-12T02:43:55;34.47;;;13.75;;
39656;SDS011;25337;51.478;7.510;2022-09-12T02:46:23;34.00;;;14.27;;
39656;SDS011;25337;51.478;7.510;2022-09-12T02:48:52;34.33;;;15.73;;
39656;SDS011;25337;51.478;7.510;2022-09-12T02:51:19;36.50;;;15.40;;
39656;SDS011;25337;51.478;7.510;2022-09-12T02:53:46;36.63;;;15.02;;
39656;SDS011;25337;51.478;7.510;2022-09-12T02:56:13;39.47;;;15.55;;
39656;SDS011;25337;51.478;7.510;2022-09-12T02:58:45;36.30;;;14.93;;
39656;SDS011;25337;51.478;7.510;2022-09-12T03:01:55;40.45;;;15.88;;
39656;SDS011;25337;51.478;7.510;2022-09-12T03:12:51;37.80;;;15.00;;
39656;SDS011;25337;51.478;7.510;2022-09-12T03:15:39;34.58;;;14.48;;
39656;SDS011;25337;51.478;7.510;2022-09-12T03:18:27;32.78;;;14.18;;
39656;SDS011;25337;51.478;7.510;2022-09-12T03:29:27;32.25;;;13.77;;
39656;SDS011;25337;51.478;7.510;2022-09-12T03:31:55;31.17;;;13.52;;
39656;SDS011;25337;51.478;7.510;2022-09-12T03:34:23;34.45;;;13.93;;
39656;SDS011;25337;51.478;7.510;2022-09-12T03:36:50;37.30;;;14.90;;
39656;SDS011;25337;51.478;7.510;2022-09-12T03:39:19;40.47;;;14.93;;
39656;SDS011;25337;51.478;7.510;2022-09-12T03:41:48;31.35;;;14.10;;
39656;SDS011;25337;51.478;7.510;2022-09-12T03:44:14;32.97;;;13.70;;
39656;SDS011;25337;51.478;7.510;2022-09-12T03:46:39;36.40;;;14.60;;
39656;SDS011;25337;51.478;7.510;2022-09-12T03:49:05;36.05;;;14.32;;
39656;SDS011;25337;51.478;7.510;2022-09-12T03:51:31;33.58;;;15.35;;
39656;SDS011;25337;51.478;7.510;2022-09-12T03:53:56;35.72;;;15.38;;
39656;SDS011;25337;51.478;7.510;2022-09-12T03:56:22;33.95;;;15.20;;
39656;SDS011;25337;51.478;7.510;2022-09-12T03:58:48;38.53;;;16.20;;
39656;SDS011;25337;51.478;7.510;2022-09-12T04:01:17;39.75;;;15.38;;
39656;SDS011;25337;51.478;7.510;2022-09-12T04:03:44;32.35;;;14.93;;
39656;SDS011;25337;51.478;7.510;2022-09-12T04:06:15;36.08;;;15.07;;
39656;SDS011;25337;51.478;7.510;2022-09-12T04:08:43;33.08;;;14.18;;
39656;SDS011;25337;51.478;7.510;2022-09-12T04:11:13;29.15;;;13.30;;
39656;SDS011;25337;51.478;7.510;2022-09-12T04:13:40;31.33;;;14.10;;
39656;SDS011;25337;51.478;7.510;2022-09-12T04:16:07;29.13;;;14.15;;
39656;SDS011;25337;51.478;7.510;2022-09-12T04:18:33;34.63;;;13.95;;
39656;SDS011;25337;51.478;7.510;2022-09-12T04:21:03;31.13;;;13.27;;
39656;SDS011;25337;51.478;7.510;2022-09-12T04:23:30;32.40;;;13.68;;
39656;SDS011;25337;51.478;7.510;2022-09-12T04:25:56;28.52;;;11.85;;
39656;SDS011;25337;51.478;7.510;2022-09-12T04:28:23;31.15;;;13.05;;
39656;SDS011;25337;51.478;7.510;2022-09-12T04:30:50;30.67;;;13.13;;
39656;SDS011;25337;51.478;7.510;2022-09-12T04:33:16;26.98;;;12.45;;
39656;SDS011;25337;51.478;7.510;2022-09-12T04:35:42;27.33;;;12.38;;
39656;SDS011;25337;51.478;7.510;2022-09-12T04:38:09;27.77;;;12.82;;
39656;SDS011;25337;51.478;7.510;2022-09-12T04:40:35;23.98;;;11.23;;
39656;SDS011;25337;51.478;7.510;2022-09-12T04:43:01;22.90;;;11.35;;
39656;SDS011;25337;51.478;7.510;2022-09-12T04:45:27;25.65;;;11.82;;
39656;SDS011;25337;51.478;7.510;2022-09-12T04:47:53;21.67;;;10.85;;
39656;SDS011;25337;51.478;7.510;2022-09-12T04:50:19;25.15;;;11.30;;
39656;SDS011;25337;51.478;7.510;2022-09-12T04:52:51;25.75;;;11.98;;
39656;SDS011;25337;51.478;7.510;2022-09-12T04:55:17;21.95;;;11.18;;
39656;SDS011;25337;51.478;7.510;2022-09-12T04:57:43;21.13;;;10.35;;
39656;SDS011;25337;51.478;7.510;2022-09-12T05:00:09;22.42;;;10.88;;
39656;SDS011;25337;51.478;7.510;2022-09-12T05:02:39;19.73;;;9.73;;
39656;SDS011;25337;51.478;7.510;2022-09-12T05:05:06;24.60;;;10.70;;
39656;SDS011;25337;51.478;7.510;2022-09-12T05:07:32;22.45;;;10.65;;
39656;SDS011;25337;51.478;7.510;2022-09-12T05:09:58;20.70;;;9.55;;
39656;SDS011;25337;51.478;7.510;2022-09-12T05:12:24;20.88;;;9.57;;
39656;SDS011;25337;51.478;7.510;2022-09-12T05:14:50;20.60;;;10.45;;
39656;SDS011;25337;51.478;7.510;2022-09-12T05:17:15;20.75;;;10.25;;
39656;SDS011;25337;51.478;7.510;2022-09-12T05:19:41;25.85;;;10.45;;
39656;SDS011;25337;51.478;7.510;2022-09-12T05:22:07;22.23;;;10.15;;
39656;SDS011;25337;51.478;7.510;2022-09-12T05:24:33;23.70;;;10.68;;
39656;SDS011;25337;51.478;7.510;2022-09-12T05:26:59;21.85;;;11.30;;
39656;SDS011;25337;51.478;7.510;2022-09-12T05:29:26;21.23;;;10.05;;
39656;SDS011;25337;51.478;7.510;2022-09-12T05:31:51;20.98;;;10.40;;
39656;SDS011;25337;51.478;7.510;2022-09-12T05:34:18;21.55;;;10.38;;
39656;SDS011;25337;51.478;7.510;2022-09-12T05:36:44;21.17;;;10.55;;
39656;SDS011;25337;51.478;7.510;2022-09-12T05:39:10;21.52;;;10.40;;
39656;SDS011;25337;51.478;7.510;2022-09-12T05:41:36;23.20;;;10.65;;
39656;SDS011;25337;51.478;7.510;2022-09-12T05:44:03;21.08;;;10.68;;
39656;SDS011;25337;51.478;7.510;2022-09-12T05:46:31;20.10;;;10.35;;
39656;SDS011;25337;51.478;7.510;2022-09-12T05:49:04;19.45;;;10.02;;
39656;SDS011;25337;51.478;7.510;2022-09-12T05:51:32;21.08;;;9.98;;
39656;SDS011;25337;51.478;7.510;2022-09-12T05:56:29;21.98;;;10.07;;
39656;SDS011;25337;51.478;7.510;2022-09-12T05:58:59;20.58;;;10.35;;
39656;SDS011;25337;51.478;7.510;2022-09-12T06:01:26;23.90;;;11.68;;
39656;SDS011;25337;51.478;7.510;2022-09-12T06:03:54;22.73;;;11.05;;
39656;SDS011;25337;51.478;7.510;2022-09-12T06:06:22;26.15;;;11.57;;
39656;SDS011;25337;51.478;7.510;2022-09-12T06:08:49;22.02;;;10.50;;
39656;SDS011;25337;51.478;7.510;2022-09-12T06:11:17;25.25;;;11.43;;
39656;SDS011;25337;51.478;7.510;2022-09-12T06:13:44;23.42;;;11.73;;
39656;SDS011;25337;51.478;7.510;2022-09-12T06:16:12;24.80;;;11.43;;
39656;SDS011;25337;51.478;7.510;2022-09-12T06:18:39;22.10;;;10.30;;
39656;SDS011;25337;51.478;7.510;2022-09-12T06:21:10;25.23;;;11.40;;
39656;SDS011;25337;51.478;7.510;2022-09-12T06:23:37;23.40;;;10.40;;
39656;SDS011;25337;51.478;7.510;2022-09-12T06:26:04;22.95;;;10.23;;
39656;SDS011;25337;51.478;7.510;2022-09-12T06:28:31;18.88;;;9.52;;
39656;SDS011;25337;51.478;7.510;2022-09-12T06:31:00;22.52;;;10.07;;
39656;SDS011;25337;51.478;7.510;2022-09-12T06:33:35;18.75;;;9.13;;
39656;SDS011;25337;51.478;7.510;2022-09-12T06:36:03;20.27;;;9.25;;
39656;SDS011;25337;51.478;7.510;2022-09-12T06:38:33;19.50;;;9.02;;
39656;SDS011;25337;51.478;7.510;2022-09-12T06:40:59;17.52;;;8.05;;
39656;SDS011;25337;51.478;7.510;2022-09-12T06:43:29;15.73;;;7.82;;
39656;SDS011;25337;51.478;7.510;2022-09-12T06:45:55;14.43;;;7.68;;
39656;SDS011;25337;51.478;7.510;2022-09-12T06:48:21;14.88;;;7.72;;
39656;SDS011;25337;51.478;7.510;2022-09-12T06:53:25;16.05;;;7.30;;
39656;SDS011;25337;51.478;7.510;2022-09-12T06:55:55;14.80;;;6.90;;
39656;SDS011;25337;51.478;7.510;2022-09-12T06:58:22;15.98;;;7.20;;
39656;SDS011;25337;51.478;7.510;2022-09-12T07:00:48;13.52;;;6.22;;
39656;SDS011;25337;51.478;7.510;2022-09-12T07:03:14;14.10;;;6.55;;
39656;SDS011;25337;51.478;7.510;2022-09-12T07:05:39;14.85;;;6.45;;
39656;SDS011;25337;51.478;7.510;2022-09-12T07:08:05;16.10;;;6.90;;
39656;SDS011;25337;51.478;7.510;2022-09-12T07:10:30;15.13;;;7.07;;
39656;SDS011;25337;51.478;7.510;2022-09-12T07:12:56;14.52;;;7.03;;
39656;SDS011;25337;51.478;7.510;2022-09-12T07:15:23;15.00;;;6.78;;
39656;SDS011;25337;51.478;7.510;2022-09-12T07:17:48;15.80;;;6.20;;
39656;SDS011;25337;51.478;7.510;2022-09-12T07:20:14;13.25;;;6.68;;
39656;SDS011;25337;51.478;7.510;2022-09-12T07:22:40;14.32;;;6.90;;
39656;SDS011;25337;51.478;7.510;2022-09-12T07:25:06;19.08;;;7.80;;
39656;SDS011;25337;51.478;7.510;2022-09-12T07:27:32;13.65;;;7.13;;
39656;SDS011;25337;51.478;7.510;2022-09-12T07:29:58;15.95;;;6.78;;
39656;SDS011;25337;51.478;7.510;2022-09-12T07:32:24;16.00;;;7.22;;
39656;SDS011;25337;51.478;7.510;2022-09-12T07:34:50;15.65;;;6.95;;
39656;SDS011;25337;51.478;7.510;2022-09-12T07:37:16;13.35;;;6.35;;
39656;SDS011;25337;51.478;7.510;2022-09-12T07:39:42;13.52;;;6.47;;
39656;SDS011;25337;51.478;7.510;2022-09-12T07:42:08;14.10;;;6.40;;
39656;SDS011;25337;51.478;7.510;2022-09-12T07:44:35;11.65;;;6.10;;
39656;SDS011;25337;51.478;7.510;2022-09-12T07:47:01;12.88;;;6.03;;
39656;SDS011;25337;51.478;7.510;2022-09-12T07:49:26;12.23;;;6.43;;
39656;SDS011;25337;51.478;7.510;2022-09-12T07:51:52;15.07;;;6.53;;
39656;SDS011;25337;51.478;7.510;2022-09-12T07:54:18;12.95;;;6.43;;
39656;SDS011;25337;51.478;7.510;2022-09-12T07:56:44;12.82;;;6.28;;
39656;SDS011;25337;51.478;7.510;2022-09-12T07:59:09;11.77;;;6.07;;
39656;SDS011;25337;51.478;7.510;2022-09-12T08:01:35;14.15;;;6.25;;
39656;SDS011;25337;51.478;7.510;2022-09-12T08:04:01;15.80;;;6.60;;
39656;SDS011;25337;51.478;7.510;2022-09-12T08:06:28;13.88;;;6.35;;
39656;SDS011;25337;51.478;7.510;2022-09-12T08:08:56;16.77;;;6.82;;
39656;SDS011;25337;51.478;7.510;2022-09-12T08:11:23;13.98;;;6.45;;
39656;SDS011;25337;51.478;7.510;2022-09-12T08:13:52;14.70;;;7.10;;
39656;SDS011;25337;51.478;7.510;2022-09-12T08:16:20;14.57;;;6.75;;
39656;SDS011;25337;51.478;7.510;2022-09-12T08:18:47;15.35;;;7.35;;
39656;SDS011;25337;51.478;7.510;2022-09-12T08:21:17;15.30;;;6.95;;
39656;SDS011;25337;51.478;7.510;2022-09-12T08:23:45;14.65;;;6.82;;
39656;SDS011;25337;51.478;7.510;2022-09-12T08:26:11;14.23;;;7.15;;
39656;SDS011;25337;51.478;7.510;2022-09-12T08:28:37;14.63;;;7.07;;
39656;SDS011;25337;51.478;7.510;2022-09-12T08:31:09;18.73;;;8.18;;
39656;SDS011;25337;51.478;7.510;2022-09-12T08:33:36;14.57;;;6.82;;
39656;SDS011;25337;51.478;7.510;2022-09-12T08:36:03;17.23;;;7.88;;
39656;SDS011;25337;51.478;7.510;2022-09-12T08:38:41;14.35;;;6.60;;
39656;SDS011;25337;51.478;7.510;2022-09-12T08:46:32;13.70;;;6.70;;
39656;SDS011;25337;51.478;7.510;2022-09-12T08:49:08;14.25;;;7.20;;
39656;SDS011;25337;51.478;7.510;2022-09-12T08:54:03;15.90;;;6.50;;
39656;SDS011;25337;51.478;7.510;2022-09-12T08:56:35;12.85;;;6.22;;
39656;SDS011;25337;51.478;7.510;2022-09-12T08:59:01;16.50;;;7.03;;
39656;SDS011;25337;51.478;7.510;2022-09-12T09:20:45;12.07;;;5.80;;
39656;SDS011;25337;51.478;7.510;2022-09-12T09:23:27;13.40;;;6.07;;
39656;SDS011;25337;51.478;7.510;2022-09-12T09:28:42;12.70;;;6.18;;
39656;SDS011;25337;51.478;7.510;2022-09-12T09:31:16;13.23;;;6.32;;
39656;SDS011;25337;51.478;7.510;2022-09-12T09:33:49;12.20;;;5.95;;
39656;SDS011;25337;51.478;7.510;2022-09-12T09:39:26;12.45;;;5.68;;
39656;SDS011;25337;51.478;7.510;2022-09-12T09:45:15;11.45;;;5.65;;
39656;SDS011;25337;51.478;7.510;2022-09-12T09:47:51;12.77;;;5.40;;
39656;SDS011;25337;51.478;7.510;2022-09-12T09:50:22;10.45;;;5.05;;
39656;SDS011;25337;51.478;7.510;2022-09-12T09:52:49;11.73;;;6.30;;
39656;SDS011;25337;51.478;7.510;2022-09-12T09:55:19;11.32;;;4.80;;
39656;SDS011;25337;51.478;7.510;2022-09-12T09:57:49;10.95;;;4.70;;
39656;SDS011;25337;51.478;7.510;2022-09-12T10:00:24;11.95;;;5.03;;
39656;SDS011;25337;51.478;7.510;2022-09-12T10:05:33;11.73;;;5.15;;
39656;SDS011;25337;51.478;7.510;2022-09-12T10:08:08;12.77;;;4.70;;
39656;SDS011;25337;51.478;7.510;2022-09-12T10:10:34;9.35;;;4.20;;
39656;SDS011;25337;51.478;7.510;2022-09-12T10:13:21;10.98;;;4.45;;
39656;SDS011;25337;51.478;7.510;2022-09-12T10:15:55;9.65;;;4.50;;
39656;SDS011;25337;51.478;7.510;2022-09-12T10:18:41;9.45;;;4.40;;
39656;SDS011;25337;51.478;7.510;2022-09-12T10:21:42;10.02;;;5.05;;
39656;SDS011;25337;51.478;7.510;2022-09-12T10:26:37;9.32;;;4.80;;
39656;SDS011;25337;51.478;7.510;2022-09-12T10:29:26;8.93;;;4.10;;
39656;SDS011;25337;51.478;7.510;2022-09-12T10:32:00;8.70;;;4.10;;
39656;SDS011;25337;51.478;7.510;2022-09-12T10:34:33;8.52;;;3.65;;
39656;SDS011;25337;51.478;7.510;2022-09-12T10:37:07;9.82;;;4.18;;
39656;SDS011;25337;51.478;7.510;2022-09-12T10:39:39;10.10;;;4.00;;
39656;SDS011;25337;51.478;7.510;2022-09-12T10:42:05;8.05;;;3.58;;
39656;SDS011;25337;51.478;7.510;2022-09-12T10:44:32;7.78;;;3.40;;
39656;SDS011;25337;51.478;7.510;2022-09-12T10:46:59;8.38;;;3.35;;
39656;SDS011;25337;51.478;7.510;2022-09-12T10:49:45;8.90;;;3.60;;
39656;SDS011;25337;51.478;7.510;2022-09-12T10:52:20;6.68;;;3.22;;
39656;SDS011;25337;51.478;7.510;2022-09-12T10:54:47;6.85;;;3.10;;
39656;SDS011;25337;51.478;7.510;2022-09-12T10:57:18;7.15;;;3.35;;
39656;SDS011;25337;51.478;7.510;2022-09-12T11:07:45;6.65;;;3.20;;
39656;SDS011;25337;51.478;7.510;2022-09-12T11:16:00;6.68;;;2.88;;
39656;SDS011;25337;51.478;7.510;2022-09-12T11:24:36;8.02;;;3.45;;
39656;SDS011;25337;51.478;7.510;2022-09-12T11:35:22;7.65;;;2.90;;
39656;SDS011;25337;51.478;7.510;2022-09-12T11:40:53;9.18;;;3.10;;
39656;SDS011;25337;51.478;7.510;2022-09-12T11:51:34;6.93;;;2.90;;
39656;SDS011;25337;51.478;7.510;2022-09-12T11:54:47;6.30;;;2.63;;
39656;SDS011;25337;51.478;7.510;2022-09-12T11:59:34;7.15;;;2.95;;
39656;SDS011;25337;51.478;7.510;2022-09-12T12:02:01;6.43;;;2.77;;
39656;SDS011;25337;51.478;7.510;2022-09-12T12:04:36;6.78;;;3.15;;
39656;SDS011;25337;51.478;7.510;2022-09-12T12:07:09;7.00;;;2.83;;
39656;SDS011;25337;51.478;7.510;2022-09-12T12:09:43;7.22;;;2.80;;
39656;SDS011;25337;51.478;7.510;2022-09-12T12:12:13;7.15;;;2.90;;
39656;SDS011;25337;51.478;7.510;2022-09-12T12:14:43;6.68;;;2.90;;
39656;SDS011;25337;51.478;7.510;2022-09-12T12:17:16;5.90;;;2.80;;
39656;SDS011;25337;51.478;7.510;2022-09-12T12:19:45;6.85;;;2.95;;
39656;SDS011;25337;51.478;7.510;2022-09-12T12:22:17;9.13;;;3.13;;
39656;SDS011;25337;51.478;7.510;2022-09-12T12:25:01;7.28;;;2.75;;
39656;SDS011;25337;51.478;7.510;2022-09-12T12:38:02;6.05;;;2.63;;
39656;SDS011;25337;51.478;7.510;2022-09-12T12:40:48;6.43;;;2.72;;
39656;SDS011;25337;51.478;7.510;2022-09-12T12:43:27;7.13;;;2.78;;
39656;SDS011;25337;51.478;7.510;2022-09-12T12:46:00;7.20;;;2.80;;
39656;SDS011;25337;51.478;7.510;2022-09-12T12:48:28;8.00;;;2.70;;
39656;SDS011;25337;51.478;7.510;2022-09-12T12:54:25;6.53;;;2.50;;
39656;SDS011;25337;51.478;7.510;2022-09-12T13:00:02;7.13;;;2.67;;
39656;SDS011;25337;51.478;7.510;2022-09-12T13:02:36;6.05;;;2.60;;
39656;SDS011;25337;51.478;7.510;2022-09-12T13:05:12;9.52;;;2.60;;
39656;SDS011;25337;51.478;7.510;2022-09-12T13:07:42;6.90;;;2.78;;
39656;SDS011;25337;51.478;7.510;2022-09-12T13:10:18;5.80;;;2.45;;
39656;SDS011;25337;51.478;7.510;2022-09-12T13:12:51;7.65;;;2.28;;
39656;SDS011;25337;51.478;7.510;2022-09-12T13:18:02;5.18;;;2.20;;
39656;SDS011;25337;51.478;7.510;2022-09-12T13:23:30;7.95;;;2.58;;
39656;SDS011;25337;51.478;7.510;2022-09-12T13:25:57;6.90;;;2.78;;
39656;SDS011;25337;51.478;7.510;2022-09-12T13:28:24;7.25;;;2.50;;
39656;SDS011;25337;51.478;7.510;2022-09-12T13:34:06;6.65;;;2.72;;
39656;SDS011;25337;51.478;7.510;2022-09-12T13:44:47;5.85;;;2.38;;
39656;SDS011;25337;51.478;7.510;2022-09-12T13:47:34;5.72;;;2.40;;
39656;SDS011;25337;51.478;7.510;2022-09-12T13:50:03;6.20;;;2.58;;
39656;SDS011;25337;51.478;7.510;2022-09-12T13:52:32;7.05;;;2.60;;
39656;SDS011;25337;51.478;7.510;2022-09-12T13:55:00;5.68;;;2.50;;
39656;SDS011;25337;51.478;7.510;2022-09-12T13:57:34;5.55;;;2.35;;
39656;SDS011;25337;51.478;7.510;2022-09-12T14:00:22;6.18;;;2.58;;
39656;SDS011;25337;51.478;7.510;2022-09-12T14:02:48;7.97;;;2.25;;
39656;SDS011;25337;51.478;7.510;2022-09-12T14:05:34;5.93;;;2.40;;
39656;SDS011;25337;51.478;7.510;2022-09-12T14:08:04;6.75;;;2.40;;
39656;SDS011;25337;51.478;7.510;2022-09-12T14:10:33;6.47;;;2.90;;
39656;SDS011;25337;51.478;7.510;2022-09-12T14:13:11;6.13;;;2.80;;
39656;SDS011;25337;51.478;7.510;2022-09-12T14:15:43;7.47;;;2.80;;
39656;SDS011;25337;51.478;7.510;2022-09-12T14:18:20;7.38;;;2.42;;
39656;SDS011;25337;51.478;7.510;2022-09-12T14:20:47;8.02;;;2.55;;
39656;SDS011;25337;51.478;7.510;2022-09-12T14:26:01;6.87;;;2.50;;
39656;SDS011;25337;51.478;7.510;2022-09-12T14:28:29;5.75;;;2.50;;
39656;SDS011;25337;51.478;7.510;2022-09-12T14:31:06;6.75;;;2.70;;
39656;SDS011;25337;51.478;7.510;2022-09-12T14:33:50;5.97;;;2.60;;
39656;SDS011;25337;51.478;7.510;2022-09-12T14:36:30;5.97;;;2.80;;
39656;SDS011;25337;51.478;7.510;2022-09-12T14:39:03;6.82;;;2.95;;
39656;SDS011;25337;51.478;7.510;2022-09-12T14:41:32;7.53;;;2.67;;
39656;SDS011;25337;51.478;7.510;2022-09-12T14:44:04;6.78;;;2.72;;
39656;SDS011;25337;51.478;7.510;2022-09-12T14:46:35;7.63;;;2.90;;
39656;SDS011;25337;51.478;7.510;2022-09-12T14:52:02;7.63;;;2.78;;
39656;SDS011;25337;51.478;7.510;2022-09-12T14:57:01;6.40;;;2.70;;
39656;SDS011;25337;51.478;7.510;2022-09-12T14:59:36;6.18;;;2.58;;
39656;SDS011;25337;51.478;7.510;2022-09-12T15:04:54;6.20;;;2.78;;
39656;SDS011;25337;51.478;7.510;2022-09-12T15:08:15;6.47;;;2.72;;
39656;SDS011;25337;51.478;7.510;2022-09-12T15:10:41;6.35;;;2.65;;
39656;SDS011;25337;51.478;7.510;2022-09-12T15:15:33;6.50;;;2.83;;
39656;SDS011;25337;51.478;7.510;2022-09-12T15:17:59;5.45;;;2.35;;
39656;SDS011;25337;51.478;7.510;2022-09-12T15:20:25;6.90;;;2.38;;
39656;SDS011;25337;51.478;7.510;2022-09-12T15:22:51;5.53;;;2.20;;
39656;SDS011;25337;51.478;7.510;2022-09-12T15:25:17;7.70;;;2.30;;
39656;SDS011;25337;51.478;7.510;2022-09-12T15:27:44;5.68;;;2.25;;
39656;SDS011;25337;51.478;7.510;2022-09-12T15:30:11;6.35;;;2.30;;
39656;SDS011;25337;51.478;7.510;2022-09-12T15:32:37;9.48;;;2.65;;
39656;SDS011;25337;51.478;7.510;2022-09-12T15:35:09;7.32;;;2.60;;
39656;SDS011;25337;51.478;7.510;2022-09-12T15:37:40;6.43;;;2.30;;
39656;SDS011;25337;51.478;7.510;2022-09-12T15:40:06;8.20;;;2.25;;
39656;SDS011;25337;51.478;7.510;2022-09-12T15:42:33;5.38;;;2.20;;
39656;SDS011;25337;51.478;7.510;2022-09-12T15:44:59;6.50;;;2.33;;
39656;SDS011;25337;51.478;7.510;2022-09-12T15:47:24;6.28;;;2.40;;
39656;SDS011;25337;51.478;7.510;2022-09-12T15:49:50;6.00;;;2.58;;
39656;SDS011;25337;51.478;7.510;2022-09-12T15:52:16;5.22;;;2.25;;
39656;SDS011;25337;51.478;7.510;2022-09-12T15:54:42;5.75;;;2.30;;
39656;SDS011;25337;51.478;7.510;2022-09-12T15:57:08;6.25;;;2.45;;
39656;SDS011;25337;51.478;7.510;2022-09-12T15:59:34;6.95;;;2.20;;
39656;SDS011;25337;51.478;7.510;2022-09-12T16:02:00;6.00;;;2.50;;
39656;SDS011;25337;51.478;7.510;2022-09-12T16:04:27;5.93;;;2.28;;
39656;SDS011;25337;51.478;7.510;2022-09-12T16:06:54;6.57;;;2.42;;
39656;SDS011;25337;51.478;7.510;2022-09-12T16:09:20;6.45;;;2.40;;
39656;SDS011;25337;51.478;7.510;2022-09-12T16:11:47;5.10;;;2.10;;
39656;SDS011;25337;51.478;7.510;2022-09-12T16:14:14;6.53;;;2.50;;
39656;SDS011;25337;51.478;7.510;2022-09-12T16:16:41;6.82;;;2.60;;
39656;SDS011;25337;51.478;7.510;2022-09-12T16:19:08;5.70;;;2.42;;
39656;SDS011;25337;51.478;7.510;2022-09-12T16:21:36;6.33;;;2.60;;
39656;SDS011;25337;51.478;7.510;2022-09-12T16:24:02;6.13;;;2.70;;
39656;SDS011;25337;51.478;7.510;2022-09-12T16:26:28;7.40;;;2.90;;
39656;SDS011;25337;51.478;7.510;2022-09-12T16:28:55;6.80;;;2.67;;
39656;SDS011;25337;51.478;7.510;2022-09-12T16:31:21;14.55;;;3.05;;
39656;SDS011;25337;51.478;7.510;2022-09-12T16:33:47;6.55;;;2.80;;
39656;SDS011;25337;51.478;7.510;2022-09-12T16:36:13;9.05;;;2.80;;
39656;SDS011;25337;51.478;7.510;2022-09-12T16:38:41;5.95;;;2.63;;
39656;SDS011;25337;51.478;7.510;2022-09-12T16:41:09;7.82;;;2.88;;
39656;SDS011;25337;51.478;7.510;2022-09-12T16:43:35;7.35;;;2.70;;
39656;SDS011;25337;51.478;7.510;2022-09-12T16:48:28;9.63;;;3.10;;
39656;SDS011;25337;51.478;7.510;2022-09-12T16:50:55;6.80;;;2.72;;
39656;SDS011;25337;51.478;7.510;2022-09-12T16:53:28;9.43;;;2.92;;
39656;SDS011;25337;51.478;7.510;2022-09-12T16:55:55;6.72;;;2.92;;
39656;SDS011;25337;51.478;7.510;2022-09-12T16:58:21;8.13;;;2.90;;
39656;SDS011;25337;51.478;7.510;2022-09-12T17:00:46;7.25;;;2.90;;
39656;SDS011;25337;51.478;7.510;2022-09-12T17:03:12;7.72;;;2.90;;
39656;SDS011;25337;51.478;7.510;2022-09-12T17:05:40;7.30;;;2.88;;
39656;SDS011;25337;51.478;7.510;2022-09-12T17:08:06;6.22;;;2.88;;
39656;SDS011;25337;51.478;7.510;2022-09-12T17:10:33;6.70;;;2.80;;
39656;SDS011;25337;51.478;7.510;2022-09-12T17:12:58;7.07;;;2.92;;
39656;SDS011;25337;51.478;7.510;2022-09-12T17:15:25;6.95;;;3.10;;
39656;SDS011;25337;51.478;7.510;2022-09-12T17:17:51;6.85;;;2.63;;
39656;SDS011;25337;51.478;7.510;2022-09-12T17:20:17;6.15;;;2.80;;
39656;SDS011;25337;51.478;7.510;2022-09-12T17:22:42;7.07;;;2.78;;
39656;SDS011;25337;51.478;7.510;2022-09-12T17:25:08;7.07;;;3.00;;
39656;SDS011;25337;51.478;7.510;2022-09-12T17:27:34;6.38;;;3.00;;
39656;SDS011;25337;51.478;7.510;2022-09-12T17:30:00;9.15;;;3.10;;
39656;SDS011;25337;51.478;7.510;2022-09-12T17:32:25;8.65;;;3.20;;
39656;SDS011;25337;51.478;7.510;2022-09-12T17:34:51;7.70;;;3.08;;
39656;SDS011;25337;51.478;7.510;2022-09-12T17:37:17;6.45;;;2.88;;
39656;SDS011;25337;51.478;7.510;2022-09-12T17:39:42;6.70;;;3.20;;
39656;SDS011;25337;51.478;7.510;2022-09-12T17:42:08;7.05;;;3.22;;
39656;SDS011;25337;51.478;7.510;2022-09-12T17:44:34;7.05;;;3.03;;
39656;SDS011;25337;51.478;7.510;2022-09-12T17:47:00;8.68;;;3.15;;
39656;SDS011;25337;51.478;7.510;2022-09-12T17:49:26;6.82;;;3.15;;
39656;SDS011;25337;51.478;7.510;2022-09-12T17:51:52;10.25;;;3.53;;
39656;SDS011;25337;51.478;7.510;2022-09-12T17:54:20;7.18;;;3.28;;
39656;SDS011;25337;51.478;7.510;2022-09-12T17:56:46;7.85;;;3.30;;